Time;durP1;ratioP1;P1;durP2;ratioP2;P2;SDS_P1;SDS_P2;PMS_P1;PMS_P2;Temp;Humidity;BMP_temperature;BMP_pressure;BME280_temperature;BME280_humidity;BME280_pressure;Samples;Min_cycle;Max_cycle;Signal;HPM_P1;HPM_P2
2022/05/15 00:00:37;;;;;;;20.83;7.50;;;13.30;93.70;;;;;;4997205;28;98747;-72
2022/05/15 00:03:19;;;;;;;24.85;8.00;;;13.30;93.70;;;;;;4999367;28;98611;-72
2022/05/15 00:05:53;;;;;;;18.27;6.78;;;13.30;93.60;;;;;;5034723;28;98592;-72
2022/05/15 00:08:21;;;;;;;23.25;7.07;;;13.20;93.60;;;;;;5016248;28;98584;-72
2022/05/15 00:10:49;;;;;;;24.27;8.15;;;13.20;93.70;;;;;;5032692;28;98632;-72
2022/05/15 00:13:16;;;;;;;24.23;8.50;;;13.20;93.80;;;;;;5034274;28;99224;-72
2022/05/15 00:15:44;;;;;;;22.50;7.50;;;13.10;94.00;;;;;;5032687;28;101822;-72
2022/05/15 00:18:11;;;;;;;23.20;7.50;;;13.10;94.00;;;;;;4999055;28;101607;-72
2022/05/15 00:20:39;;;;;;;22.88;6.60;;;13.00;94.00;;;;;;5029274;28;98555;-72
2022/05/15 00:23:08;;;;;;;32.50;7.47;;;13.00;94.00;;;;;;5029644;28;98690;-72
2022/05/15 00:25:36;;;;;;;25.95;7.63;;;13.00;94.20;;;;;;5012405;28;101988;-72
2022/05/15 00:28:03;;;;;;;24.02;7.18;;;12.90;94.30;;;;;;5013348;28;98884;-72
2022/05/15 00:30:31;;;;;;;23.40;6.93;;;12.90;94.40;;;;;;5013034;28;97770;-72
2022/05/15 00:32:59;;;;;;;24.58;8.52;;;12.80;94.40;;;;;;5013934;28;98515;-72
2022/05/15 00:35:27;;;;;;;26.13;8.40;;;12.80;94.50;;;;;;5012297;28;101809;-72
2022/05/15 00:37:54;;;;;;;30.05;8.57;;;12.70;94.60;;;;;;5012856;28;99244;-72
2022/05/15 00:40:23;;;;;;;21.58;6.90;;;12.70;94.70;;;;;;5014157;28;98898;-72
2022/05/15 00:42:50;;;;;;;20.40;6.75;;;12.70;94.60;;;;;;5011974;28;98567;-72
2022/05/15 00:45:21;;;;;;;31.63;7.43;;;12.60;94.60;;;;;;5027944;28;99242;-72
2022/05/15 00:47:49;;;;;;;18.73;7.65;;;12.70;94.80;;;;;;5028948;28;99130;-72
2022/05/15 00:50:33;;;;;;;21.65;7.20;;;12.60;94.70;;;;;;5012261;28;98570;-72
2022/05/15 00:53:06;;;;;;;25.05;7.80;;;12.60;94.80;;;;;;5012464;28;99174;-72
2022/05/15 00:55:40;;;;;;;21.52;8.02;;;12.60;94.90;;;;;;5028983;28;101189;-72
2022/05/15 00:58:18;;;;;;;24.65;8.05;;;12.50;94.80;;;;;;5028800;28;100997;-72
2022/05/15 01:00:45;;;;;;;19.17;7.70;;;12.60;94.90;;;;;;5014005;28;98441;-72
2022/05/15 01:03:15;;;;;;;25.60;8.48;;;12.50;95.00;;;;;;4995377;28;99309;-72
2022/05/15 01:05:46;;;;;;;28.85;8.25;;;12.50;95.00;;;;;;5011492;28;101599;-72
2022/05/15 01:08:20;;;;;;;21.23;8.35;;;12.50;95.00;;;;;;5011916;28;100808;-72
2022/05/15 01:10:50;;;;;;;24.70;8.02;;;12.50;95.00;;;;;;5012116;28;98623;-72
2022/05/15 01:13:19;;;;;;;24.25;7.72;;;12.50;95.00;;;;;;5028592;28;98450;-72
2022/05/15 01:15:47;;;;;;;20.80;7.20;;;12.50;95.10;;;;;;5011547;28;102152;-72
2022/05/15 01:18:24;;;;;;;24.55;6.80;;;12.40;95.20;;;;;;5011487;28;101634;-72
2022/05/15 01:20:53;;;;;;;24.40;7.95;;;12.40;95.30;;;;;;5012384;28;97818;-72
2022/05/15 01:23:21;;;;;;;23.70;7.78;;;12.30;95.40;;;;;;5012075;28;98524;-72
2022/05/15 01:25:49;;;;;;;28.88;8.77;;;12.30;95.60;;;;;;5011498;28;100372;-72
2022/05/15 01:28:24;;;;;;;27.10;7.38;;;12.30;95.60;;;;;;5011239;28;101719;-72
2022/05/15 01:30:54;;;;;;;16.77;6.90;;;12.30;95.60;;;;;;5012012;28;99211;-72
2022/05/15 01:33:22;;;;;;;27.90;8.25;;;12.30;95.60;;;;;;4995307;28;98829;-72
2022/05/15 01:35:49;;;;;;;24.85;8.02;;;12.20;95.60;;;;;;5011607;28;100105;-72
2022/05/15 01:38:20;;;;;;;21.02;8.07;;;12.20;95.60;;;;;;5011187;28;102134;-72
2022/05/15 01:40:48;;;;;;;24.38;8.18;;;12.20;95.70;;;;;;5013171;28;98771;-72
2022/05/15 01:43:16;;;;;;;27.38;7.57;;;12.20;95.80;;;;;;5011434;28;98620;-72
2022/05/15 01:45:43;;;;;;;23.23;8.25;;;12.10;95.80;;;;;;5011470;28;101215;-72
2022/05/15 01:48:12;;;;;;;24.05;8.13;;;12.10;95.80;;;;;;4994666;28;100762;-72
2022/05/15 01:50:41;;;;;;;23.23;8.57;;;12.10;95.90;;;;;;5028378;28;98607;-72
2022/05/15 01:53:10;;;;;;;23.88;8.25;;;12.10;95.90;;;;;;5010903;28;99300;-72
2022/05/15 01:55:37;;;;;;;20.95;8.15;;;12.10;96.00;;;;;;5027426;28;101708;-72
2022/05/15 01:58:09;;;;;;;27.30;9.05;;;12.00;96.10;;;;;;4994521;28;101277;-72
2022/05/15 02:00:38;;;;;;;24.80;8.13;;;12.10;96.20;;;;;;5011574;28;98722;-72
2022/05/15 02:03:05;;;;;;;29.33;9.10;;;12.00;96.20;;;;;;5012508;28;98524;-72
2022/05/15 02:05:32;;;;;;;27.98;8.57;;;12.00;96.30;;;;;;5010966;28;101963;-72
2022/05/15 02:07:59;;;;;;;21.08;8.13;;;11.90;96.60;;;;;;5010988;28;101579;-72
2022/05/15 02:10:26;;;;;;;30.42;8.60;;;11.90;96.70;;;;;;5011382;28;98775;-72
2022/05/15 02:12:53;;;;;;;20.70;8.50;;;11.90;96.80;;;;;;5027579;28;98618;-72
2022/05/15 02:15:20;;;;;;;19.45;8.07;;;11.80;96.90;;;;;;5010656;28;101362;-72
2022/05/15 02:17:48;;;;;;;26.92;9.07;;;11.80;97.00;;;;;;5011936;28;99257;-72
2022/05/15 02:20:16;;;;;;;27.42;8.65;;;11.70;96.90;;;;;;5010475;28;98483;-72
2022/05/15 02:22:45;;;;;;;26.25;7.85;;;11.70;97.50;;;;;;5012248;28;98611;-71
2022/05/15 02:25:14;;;;;;;24.42;7.95;;;11.70;98.00;;;;;;4993677;28;101858;-71
2022/05/15 02:27:43;;;;;;;25.55;8.88;;;11.70;98.20;;;;;;5010756;28;101812;-71
2022/05/15 02:30:11;;;;;;;21.38;6.82;;;11.70;98.30;;;;;;5027385;28;98671;-71
2022/05/15 02:32:39;;;;;;;22.35;7.63;;;11.60;98.30;;;;;;5012348;28;98496;-71
2022/05/15 02:35:07;;;;;;;23.23;7.80;;;11.60;98.20;;;;;;5010873;28;101173;-71
2022/05/15 02:37:34;;;;;;;22.77;7.35;;;11.60;98.20;;;;;;5027323;28;100744;-71
2022/05/15 02:40:05;;;;;;;17.88;8.00;;;11.50;98.40;;;;;;5027747;28;98612;-71
2022/05/15 02:42:32;;;;;;;22.60;8.07;;;11.50;98.70;;;;;;4993853;28;99322;-71
2022/05/15 02:45:00;;;;;;;20.48;7.65;;;11.40;98.80;;;;;;5010315;28;100529;-71
2022/05/15 02:47:27;;;;;;;21.25;7.93;;;11.40;98.90;;;;;;5010323;28;101484;-71
2022/05/15 02:52:40;;;;;;;22.08;8.13;;;11.40;99.30;;;;;;5027393;28;99389;-71
2022/05/15 02:55:10;;;;;;;21.00;8.48;;;11.30;99.40;;;;;;5010388;28;101835;-71
2022/05/15 02:57:40;;;;;;;22.92;9.40;;;11.30;99.40;;;;;;5026963;28;101701;-71
2022/05/15 03:00:09;;;;;;;23.85;9.15;;;11.30;99.40;;;;;;5010896;28;97808;-71
2022/05/15 03:02:38;;;;;;;23.70;9.25;;;11.30;99.40;;;;;;5027206;28;98533;-71
2022/05/15 03:05:07;;;;;;;19.50;8.57;;;11.20;99.40;;;;;;5026550;28;101558;-71
2022/05/15 03:07:36;;;;;;;21.45;8.80;;;11.20;99.30;;;;;;5011217;28;101529;-71
2022/05/15 03:10:04;;;;;;;19.45;8.90;;;11.20;99.50;;;;;;5030559;28;99001;-72
2022/05/15 03:12:31;;;;;;;22.08;9.23;;;11.10;99.50;;;;;;5013732;28;98536;-71
2022/05/15 03:14:58;;;;;;;20.88;8.75;;;11.10;99.70;;;;;;5013618;28;99215;-72
2022/05/15 03:17:26;;;;;;;29.38;10.98;;;11.10;99.60;;;;;;5013314;28;100115;-72
2022/05/15 03:19:53;;;;;;;24.10;10.07;;;11.00;99.70;;;;;;4996423;28;98593;-71
2022/05/15 03:22:19;;;;;;;22.70;9.07;;;11.00;99.70;;;;;;5013065;28;98595;-71
2022/05/15 03:24:46;;;;;;;22.08;9.80;;;11.00;99.70;;;;;;4997260;28;101181;-71
2022/05/15 03:27:14;;;;;;;20.05;9.27;;;11.00;99.80;;;;;;5013396;28;101195;-71
2022/05/15 03:29:41;;;;;;;22.85;10.65;;;11.00;99.80;;;;;;5014053;28;98551;-71
2022/05/15 03:32:08;;;;;;;22.73;10.20;;;11.00;99.80;;;;;;5013009;28;99271;-71
2022/05/15 03:34:35;;;;;;;22.45;10.07;;;11.00;99.80;;;;;;5012781;28;99223;-71
2022/05/15 03:37:02;;;;;;;21.52;9.45;;;10.90;99.80;;;;;;4996094;28;101584;-71
2022/05/15 03:39:29;;;;;;;24.55;10.18;;;11.00;99.80;;;;;;5014680;28;98546;-71
2022/05/15 03:41:56;;;;;;;21.75;9.95;;;10.90;99.80;;;;;;5013089;28;98555;-72
2022/05/15 03:44:23;;;;;;;24.50;10.20;;;10.90;99.80;;;;;;5012811;28;101805;-71
2022/05/15 03:46:51;;;;;;;26.45;10.35;;;10.90;99.80;;;;;;5012623;28;101533;-71
2022/05/15 03:49:18;;;;;;;19.33;9.57;;;10.90;99.80;;;;;;5013232;28;97823;-71
2022/05/15 03:51:45;;;;;;;24.70;10.02;;;10.90;99.80;;;;;;5030505;28;98985;-72
2022/05/15 03:54:12;;;;;;;21.52;9.30;;;10.90;99.80;;;;;;5013970;28;99391;-71
2022/05/15 03:56:50;;;;;;;21.70;10.25;;;10.90;99.90;;;;;;4995716;28;101766;-72
2022/05/15 03:59:26;;;;;;;23.75;10.68;;;11.00;99.90;;;;;;4997836;28;99054;-71
2022/05/15 04:01:53;;;;;;;31.30;11.18;;;11.00;99.90;;;;;;5012611;28;98585;-71
2022/05/15 04:04:21;;;;;;;34.40;11.57;;;11.00;99.90;;;;;;4995650;28;100353;-72
2022/05/15 04:06:48;;;;;;;24.30;10.02;;;11.00;99.90;;;;;;5013517;28;99057;-72
2022/05/15 04:09:16;;;;;;;27.67;11.35;;;11.10;99.90;;;;;;4996149;28;98509;-72
2022/05/15 04:11:43;;;;;;;30.73;11.55;;;11.10;99.90;;;;;;5028957;28;98644;-72
2022/05/15 04:14:10;;;;;;;21.67;9.82;;;11.20;99.80;;;;;;5012812;28;101139;-72
2022/05/15 04:16:37;;;;;;;24.30;11.57;;;11.20;99.70;;;;;;5012524;28;100334;-72
2022/05/15 04:19:06;;;;;;;22.60;10.45;;;11.30;99.70;;;;;;5012493;28;98865;-72
2022/05/15 04:21:37;;;;;;;22.50;10.27;;;11.30;99.70;;;;;;5028471;28;99397;-72
2022/05/15 04:24:06;;;;;;;25.60;10.23;;;11.40;99.60;;;;;;4995408;28;102068;-72
2022/05/15 04:26:34;;;;;;;25.20;10.13;;;11.40;99.50;;;;;;5011894;28;99274;-72
2022/05/15 04:29:01;;;;;;;22.55;10.07;;;11.50;99.50;;;;;;5028928;28;99010;-72
2022/05/15 04:31:29;;;;;;;25.58;10.45;;;11.50;99.40;;;;;;5012222;28;98889;-72
2022/05/15 04:33:56;;;;;;;22.52;10.02;;;11.50;99.30;;;;;;4995332;28;101940;-72
2022/05/15 04:36:24;;;;;;;21.50;10.15;;;11.50;99.40;;;;;;5012863;28;99125;-72
2022/05/15 04:38:51;;;;;;;22.77;9.98;;;11.60;99.30;;;;;;5013786;28;98314;-71
2022/05/15 04:41:18;;;;;;;22.65;10.23;;;11.70;99.20;;;;;;5013497;28;98795;-71
2022/05/15 04:43:47;;;;;;;22.35;9.88;;;11.70;99.20;;;;;;5011261;28;101916;-72
2022/05/15 04:46:15;;;;;;;25.27;10.27;;;11.80;99.00;;;;;;5012051;28;101548;-72
2022/05/15 04:48:42;;;;;;;24.23;10.30;;;11.90;99.00;;;;;;5028452;28;98576;-72
2022/05/15 04:51:09;;;;;;;26.40;9.38;;;11.90;99.00;;;;;;5013480;28;98890;-72
2022/05/15 04:53:36;;;;;;;25.15;10.32;;;12.00;98.90;;;;;;5013170;28;99376;-72
2022/05/15 04:56:04;;;;;;;23.38;9.45;;;12.10;98.70;;;;;;5011394;28;99221;-71
2022/05/15 04:58:31;;;;;;;23.15;9.32;;;12.20;98.70;;;;;;5029135;28;98584;-70
2022/05/15 05:00:58;;;;;;;24.92;9.18;;;12.20;98.60;;;;;;5029413;28;98475;-70
2022/05/15 05:03:25;;;;;;;23.27;10.07;;;12.30;98.50;;;;;;5012081;28;101088;-70
2022/05/15 05:05:52;;;;;;;24.08;9.02;;;12.40;98.40;;;;;;5011530;28;106528;-70
2022/05/15 05:08:19;;;;;;;22.95;9.77;;;12.50;98.20;;;;;;5013546;28;98501;-70
2022/05/15 05:10:46;;;;;;;23.48;9.50;;;12.60;98.20;;;;;;5013035;28;99233;-70
2022/05/15 05:13:13;;;;;;;29.70;9.57;;;12.70;98.10;;;;;;5011595;28;101818;-71
2022/05/15 05:15:40;;;;;;;22.23;8.90;;;12.70;97.90;;;;;;5013015;28;99131;-70
2022/05/15 05:18:07;;;;;;;24.48;9.45;;;12.80;97.90;;;;;;5028863;28;98545;-70
2022/05/15 05:20:34;;;;;;;20.77;8.05;;;12.90;98.00;;;;;;5021953;28;98510;-70
2022/05/15 05:23:01;;;;;;;18.95;8.32;;;12.90;97.70;;;;;;5014878;28;102051;-70
2022/05/15 05:25:28;;;;;;;16.58;8.50;;;13.10;97.50;;;;;;5033041;28;98986;-70
2022/05/15 05:27:55;;;;;;;22.23;7.82;;;13.10;97.40;;;;;;5015464;28;97767;-70
2022/05/15 05:30:24;;;;;;;21.65;8.45;;;13.20;97.20;;;;;;5014896;28;98826;-70
2022/05/15 05:32:51;;;;;;;21.33;7.63;;;13.50;97.10;;;;;;5031418;28;99302;-70
2022/05/15 05:35:19;;;;;;;19.95;7.47;;;13.70;96.80;;;;;;5031358;28;99587;-71
2022/05/15 05:37:47;;;;;;;19.52;7.43;;;14.00;96.50;;;;;;5014885;28;98542;-70
2022/05/15 05:40:14;;;;;;;18.10;7.40;;;14.20;95.90;;;;;;5033326;28;98514;-70
2022/05/15 05:42:42;;;;;;;20.20;7.00;;;14.50;95.50;;;;;;5014396;28;101875;-70
2022/05/15 05:45:10;;;;;;;20.00;7.47;;;14.70;95.20;;;;;;5031461;28;99311;-70
2022/05/15 05:47:37;;;;;;;17.20;6.68;;;14.90;94.50;;;;;;5033338;28;98867;-71
2022/05/15 05:50:08;;;;;;;16.80;6.47;;;15.00;94.40;;;;;;4998707;28;98599;-71
2022/05/15 05:52:39;;;;;;;19.20;7.88;;;15.00;94.20;;;;;;5014692;28;101613;-71
2022/05/15 05:55:10;;;;;;;18.75;7.35;;;15.10;94.20;;;;;;5014480;28;101744;-71
2022/05/15 05:57:38;;;;;;;13.38;6.68;;;15.20;94.00;;;;;;5032908;28;98492;-70
2022/05/15 06:00:07;;;;;;;19.05;7.18;;;15.30;93.90;;;;;;5013971;28;102567;-71
2022/05/15 06:02:37;;;;;;;14.40;6.43;;;15.50;93.80;;;;;;5029922;28;98989;-71
2022/05/15 06:05:05;;;;;;;16.50;7.65;;;15.50;93.50;;;;;;5032437;28;98798;-71
2022/05/15 06:07:37;;;;;;;16.52;6.43;;;15.70;93.30;;;;;;5031486;28;98583;-71
2022/05/15 06:10:08;;;;;;;19.50;7.03;;;15.90;93.00;;;;;;5015921;28;98680;-71
2022/05/15 06:12:35;;;;;;;20.45;6.80;;;16.00;92.80;;;;;;5032685;28;99306;-70
2022/05/15 06:15:02;;;;;;;18.55;7.32;;;16.00;92.50;;;;;;5014232;28;98967;-71
2022/05/15 06:17:30;;;;;;;23.13;7.68;;;16.10;92.50;;;;;;5014743;28;97807;-71
2022/05/15 06:19:57;;;;;;;20.17;7.70;;;16.00;92.40;;;;;;5013691;28;100829;-71
2022/05/15 06:22:24;;;;;;;18.55;7.32;;;16.10;92.40;;;;;;5032338;28;99316;-71
2022/05/15 06:24:51;;;;;;;19.48;7.60;;;16.10;92.30;;;;;;4997188;28;99179;-71
2022/05/15 06:27:18;;;;;;;21.85;7.20;;;16.20;92.00;;;;;;5014341;28;98578;-71
2022/05/15 06:29:45;;;;;;;18.27;7.22;;;16.30;91.90;;;;;;5014650;28;98605;-71
2022/05/15 06:32:12;;;;;;;18.48;6.22;;;16.40;91.60;;;;;;5030771;28;102940;-71
2022/05/15 06:34:39;;;;;;;20.35;6.88;;;16.50;91.70;;;;;;5014092;28;101551;-71
2022/05/15 06:37:06;;;;;;;19.17;6.63;;;16.60;91.50;;;;;;5032684;28;98446;-71
2022/05/15 06:39:36;;;;;;;15.80;5.85;;;16.70;91.20;;;;;;5032518;28;98915;-71
2022/05/15 06:42:03;;;;;;;14.80;6.00;;;16.70;90.70;;;;;;5031764;27;98645;-70
2022/05/15 06:44:41;;;;;;;20.83;8.60;;;16.70;90.40;;;;;;5017421;28;100683;-71
2022/05/15 06:47:09;;;;;;;14.20;6.13;;;16.70;90.10;;;;;;5017665;28;98670;-70
2022/05/15 06:49:40;;;;;;;19.23;6.90;;;16.70;89.60;;;;;;5035676;28;99284;-71
2022/05/15 06:52:09;;;;;;;17.33;6.50;;;16.70;89.30;;;;;;5002261;28;99462;-71
2022/05/15 06:54:42;;;;;;;19.15;7.32;;;16.70;89.50;;;;;;5001066;28;99077;-71
2022/05/15 06:57:33;;;;;;;20.40;7.10;;;16.80;89.30;;;;;;5018552;28;98534;-71
2022/05/15 07:00:11;;;;;;;17.58;6.45;;;16.80;88.80;;;;;;5035762;28;98605;-71
2022/05/15 07:02:40;;;;;;;17.63;7.15;;;16.90;89.10;;;;;;5035422;28;99431;-71
2022/05/15 07:05:09;;;;;;;18.50;6.47;;;17.00;89.00;;;;;;5017673;28;99072;-71
2022/05/15 07:07:38;;;;;;;17.75;6.95;;;17.00;88.60;;;;;;5034791;28;97847;-71
2022/05/15 07:10:06;;;;;;;17.42;6.30;;;17.20;88.80;;;;;;5033947;28;99204;-71
2022/05/15 07:12:44;;;;;;;17.20;7.05;;;17.20;88.40;;;;;;5017049;28;102224;-71
2022/05/15 07:15:14;;;;;;;15.15;6.65;;;17.30;88.10;;;;;;5016665;28;99659;-71
2022/05/15 07:17:44;;;;;;;13.88;6.97;;;17.30;87.70;;;;;;5017228;28;98531;-71
2022/05/15 07:20:12;;;;;;;24.67;7.20;;;17.40;87.30;;;;;;5017074;28;98528;-71
2022/05/15 07:22:39;;;;;;;18.50;6.93;;;17.50;87.30;;;;;;5017432;28;99293;-71
2022/05/15 07:25:06;;;;;;;19.35;6.82;;;17.50;87.10;;;;;;5033408;28;100252;-71
2022/05/15 07:27:33;;;;;;;15.75;6.28;;;17.60;87.10;;;;;;5035301;28;98531;-71
2022/05/15 07:30:00;;;;;;;19.40;6.80;;;17.60;86.50;;;;;;5017143;28;98623;-71
2022/05/15 07:32:27;;;;;;;20.02;7.57;;;17.70;86.60;;;;;;5035274;28;98632;-71
2022/05/15 07:34:54;;;;;;;15.88;6.20;;;17.70;86.00;;;;;;5016419;28;100841;-71
2022/05/15 07:37:21;;;;;;;18.80;7.43;;;17.70;85.90;;;;;;5017018;28;98527;-71
2022/05/15 07:40:14;;;;;;;19.38;5.85;;;17.70;85.70;;;;;;5016819;28;99332;-71
2022/05/15 07:42:43;;;;;;;20.33;6.57;;;17.90;86.10;;;;;;5018935;28;100893;-71
2022/05/15 07:45:11;;;;;;;19.55;6.93;;;17.80;85.70;;;;;;4999419;28;101629;-71
2022/05/15 07:47:39;;;;;;;13.20;5.57;;;17.90;85.60;;;;;;5033817;28;99066;-71
2022/05/15 07:50:07;;;;;;;14.63;6.10;;;18.00;85.20;;;;;;5016613;28;98960;-71
2022/05/15 07:52:35;;;;;;;17.75;6.30;;;18.10;83.90;;;;;;5015934;28;101785;-71
2022/05/15 07:55:08;;;;;;;14.90;6.43;;;18.20;83.60;;;;;;5032485;28;101921;-71
2022/05/15 07:57:35;;;;;;;14.23;6.13;;;18.50;83.20;;;;;;5016930;28;97795;-71
2022/05/15 08:00:05;;;;;;;13.40;5.80;;;19.00;82.60;;;;;;5034574;28;98590;-71
2022/05/15 08:02:38;;;;;;;14.80;5.85;;;20.00;81.30;;;;;;5033709;28;98851;-71
2022/05/15 08:08:01;;;;;;;14.70;7.05;;;22.50;74.00;;;;;;5016243;28;98550;-72
2022/05/15 08:10:32;;;;;;;12.25;5.75;;;23.60;70.80;;;;;;5034547;28;98548;-72
2022/05/15 08:13:00;;;;;;;11.80;5.10;;;24.70;66.90;;;;;;5015911;28;100587;-72
2022/05/15 08:15:27;;;;;;;12.63;5.53;;;25.70;63.00;;;;;;5032604;28;101573;-72
2022/05/15 08:17:54;;;;;;;12.40;6.13;;;26.70;59.90;;;;;;4999945;28;98521;-72
2022/05/15 08:25:52;;;;;;;11.45;5.78;;;29.20;48.50;;;;;;5015690;28;100947;-72
2022/05/15 08:28:19;;;;;;;12.10;5.28;;;29.50;45.60;;;;;;5034287;28;98562;-72
2022/05/15 08:30:46;;;;;;;12.00;5.50;;;29.80;44.10;;;;;;5015841;28;99310;-72
2022/05/15 08:33:13;;;;;;;11.23;5.90;;;30.30;43.60;;;;;;5033858;28;99417;-72
2022/05/15 08:35:40;;;;;;;13.15;6.43;;;30.50;42.50;;;;;;5016055;28;98988;-72
2022/05/15 08:38:08;;;;;;;11.50;5.72;;;30.70;41.40;;;;;;5034025;28;98861;-72
2022/05/15 08:41:02;;;;;;;11.05;4.55;;;31.10;41.10;;;;;;5034195;28;98995;-72
2022/05/15 08:43:51;;;;;;;10.32;5.40;;;31.40;39.50;;;;;;5015592;28;101928;-72
2022/05/15 08:46:33;;;;;;;13.90;5.57;;;31.50;38.60;;;;;;5032458;28;99187;-72
2022/05/15 08:49:31;;;;;;;9.73;5.00;;;31.60;37.30;;;;;;5034492;28;97959;-72
2022/05/15 08:52:07;;;;;;;10.35;4.93;;;31.70;36.70;;;;;;5000768;28;98533;-72
2022/05/15 08:54:38;;;;;;;11.07;4.80;;;31.80;37.80;;;;;;5033965;28;99349;-72
2022/05/15 08:57:13;;;;;;;9.30;4.28;;;31.60;37.20;;;;;;5033309;28;99631;-72
2022/05/15 08:59:55;;;;;;;12.00;4.47;;;31.60;36.40;;;;;;5034081;28;98514;-72
2022/05/15 09:02:23;;;;;;;15.20;5.63;;;31.10;37.00;;;;;;5015731;28;98589;-72
2022/05/15 09:04:54;;;;;;;16.35;5.13;;;30.20;37.10;;;;;;5032303;27;99401;-72
2022/05/15 09:07:50;;;;;;;12.18;5.40;;;29.50;38.00;;;;;;5033248;28;99128;-72
2022/05/15 09:10:35;;;;;;;11.40;4.82;;;28.80;38.80;;;;;;5033757;28;98466;-72
2022/05/15 09:13:19;;;;;;;13.55;4.63;;;27.90;40.00;;;;;;5015759;28;98524;-72
2022/05/15 09:15:57;;;;;;;12.25;5.07;;;27.00;41.70;;;;;;5032298;28;101248;-72
2022/05/15 09:18:27;;;;;;;13.30;5.10;;;26.40;42.80;;;;;;5033023;28;98521;-71
2022/05/15 09:20:57;;;;;;;15.73;5.82;;;25.70;44.70;;;;;;5015158;28;98650;-72
2022/05/15 09:23:26;;;;;;;15.00;5.63;;;25.30;45.70;;;;;;5032007;28;99348;-71
2022/05/15 09:25:59;;;;;;;11.50;4.22;;;25.00;46.00;;;;;;5014907;28;102012;-71
2022/05/15 09:28:28;;;;;;;13.43;5.38;;;24.90;46.20;;;;;;5033152;28;98961;-71
2022/05/15 09:30:58;;;;;;;13.43;4.47;;;24.60;46.80;;;;;;5014938;28;98483;-71
2022/05/15 09:33:44;;;;;;;15.48;5.00;;;24.40;47.90;;;;;;5033468;28;98515;-71
2022/05/15 09:36:41;;;;;;;13.52;4.88;;;24.30;48.40;;;;;;5032869;28;99186;-72
2022/05/15 09:39:25;;;;;;;13.07;5.82;;;24.10;48.80;;;;;;5016489;28;99032;-71
2022/05/15 09:45:18;;;;;;;12.38;4.57;;;23.60;49.30;;;;;;5033226;28;98868;-71
2022/05/15 09:48:10;;;;;;;14.70;4.13;;;23.50;49.70;;;;;;5014921;28;99814;-71
2022/05/15 09:50:50;;;;;;;12.95;4.68;;;23.50;50.70;;;;;;5032228;28;99958;-71
2022/05/15 09:53:31;;;;;;;16.60;4.88;;;23.40;50.40;;;;;;5032856;28;98467;-71
2022/05/15 09:56:05;;;;;;;9.95;4.63;;;23.40;50.60;;;;;;5015570;28;98608;-71
2022/05/15 09:58:36;;;;;;;13.80;5.38;;;23.20;51.40;;;;;;4997710;28;101860;-71
2022/05/15 10:01:21;;;;;;;13.48;4.07;;;23.40;51.50;;;;;;5032917;28;98878;-71
2022/05/15 10:03:52;;;;;;;15.93;5.15;;;23.50;51.20;;;;;;5031825;28;98488;-71
2022/05/15 10:06:21;;;;;;;12.10;4.25;;;23.40;51.40;;;;;;5032625;28;98454;-71
2022/05/15 10:09:15;;;;;;;14.27;5.70;;;23.40;51.90;;;;;;5032802;28;98540;-71
2022/05/15 10:11:46;;;;;;;14.15;4.35;;;23.40;51.30;;;;;;5030931;28;100908;-71
2022/05/15 10:14:33;;;;;;;16.27;6.53;;;23.20;52.10;;;;;;5014586;28;98904;-71
2022/05/15 10:17:02;;;;;;;15.50;5.28;;;23.20;52.00;;;;;;5030915;28;99644;-71
2022/05/15 10:19:36;;;;;;;15.00;4.60;;;23.20;52.00;;;;;;5013881;28;101836;-71
2022/05/15 10:22:25;;;;;;;14.13;5.45;;;23.20;52.00;;;;;;5032262;28;99087;-71
2022/05/15 10:25:21;;;;;;;12.70;4.32;;;23.30;51.70;;;;;;5032493;28;98943;-71
2022/05/15 10:28:15;;;;;;;12.02;4.13;;;23.30;52.00;;;;;;5014319;28;98677;-71
2022/05/15 10:31:03;;;;;;;13.45;4.88;;;23.50;51.40;;;;;;5032326;28;99407;-71
2022/05/15 10:33:38;;;;;;;11.00;4.35;;;23.40;52.70;;;;;;5030859;28;100320;-71
2022/05/15 10:36:25;;;;;;;11.80;4.07;;;23.40;51.40;;;;;;5033027;28;97789;-71
2022/05/15 10:39:15;;;;;;;14.05;4.75;;;23.50;51.10;;;;;;5032425;28;99062;-71
2022/05/15 10:41:51;;;;;;;13.57;4.28;;;23.50;51.40;;;;;;5031938;28;98513;-71
2022/05/15 10:44:51;;;;;;;12.07;4.22;;;23.50;51.50;;;;;;5030414;28;99621;-71
2022/05/15 10:47:26;;;;;;;17.60;5.00;;;23.60;52.40;;;;;;5032388;28;98463;-71
2022/05/15 10:50:14;;;;;;;14.80;4.47;;;23.50;51.40;;;;;;4997528;28;98647;-71
2022/05/15 10:57:21;;;;;;;14.63;5.47;;;23.60;50.60;;;;;;5013513;28;102075;-71
2022/05/15 10:59:21;;;;;;;13.98;5.55;;;23.60;51.30;;;;;;5014066;28;98564;-71
2022/05/15 11:02:25;;;;;;;13.27;4.40;;;23.50;50.30;;;;;;5014065;28;98663;-71
2022/05/15 11:05:00;;;;;;;;;;;23.70;49.70;;;;;;5014612;28;98675;-71
2022/05/15 11:07:48;;;;;;;10.63;5.50;;;23.50;50.20;;;;;;5032926;28;100497;-71
2022/05/15 11:10:26;;;;;;;12.75;4.47;;;23.60;50.80;;;;;;5032365;28;98423;-71
2022/05/15 11:13:11;;;;;;;12.18;5.93;;;23.70;50.70;;;;;;5030695;28;99282;-71
2022/05/15 11:16:09;;;;;;;13.20;4.25;;;23.70;51.60;;;;;;5031318;28;102572;-71
2022/05/15 11:19:09;;;;;;;11.85;5.07;;;23.90;49.10;;;;;;5031666;28;98943;-71
2022/05/15 11:21:41;;;;;;;15.32;4.70;;;23.90;48.50;;;;;;5031077;28;98659;-71
2022/05/15 11:24:28;;;;;;;14.00;4.88;;;24.00;48.80;;;;;;5013585;28;98646;-71
2022/05/15 11:27:00;;;;;;;14.52;4.47;;;24.20;48.80;;;;;;5029905;28;99364;-71
2022/05/15 11:29:30;;;;;;;10.33;5.10;;;24.30;48.90;;;;;;5034441;28;99109;-71
2022/05/15 11:31:58;;;;;;;14.65;4.55;;;24.30;48.80;;;;;;5017313;28;97750;-71
2022/05/15 11:35:02;;;;;;;13.43;4.93;;;24.30;48.70;;;;;;5034583;28;98514;-72
2022/05/15 11:37:38;;;;;;;15.05;4.45;;;24.50;48.10;;;;;;5015622;28;101830;-71
2022/05/15 11:40:31;;;;;;;11.40;4.05;;;24.50;47.40;;;;;;5033582;28;99270;-72
2022/05/15 11:42:59;;;;;;;11.13;4.38;;;24.50;47.70;;;;;;5003604;28;98609;-72
2022/05/15 11:45:32;;;;;;;15.25;4.75;;;24.50;48.20;;;;;;5034698;28;98572;-72
2022/05/15 11:48:11;;;;;;;13.05;4.53;;;24.50;47.20;;;;;;5034688;28;99263;-71
2022/05/15 11:50:51;;;;;;;13.32;4.53;;;24.60;47.50;;;;;;5033964;28;99019;-71
2022/05/15 11:53:32;;;;;;;11.60;3.80;;;24.40;46.70;;;;;;5035000;28;98434;-72
2022/05/15 11:56:24;;;;;;;14.50;4.30;;;24.50;48.00;;;;;;5016583;28;98563;-71
2022/05/15 11:59:00;;;;;;;15.68;4.18;;;24.70;47.20;;;;;;5016167;28;101112;-72
2022/05/15 12:01:35;;;;;;;13.82;4.78;;;24.90;47.30;;;;;;5034366;28;98998;-72
2022/05/15 12:04:21;;;;;;;8.40;3.85;;;25.00;46.20;;;;;;5033584;28;98614;-72
2022/05/15 12:07:11;;;;;;;15.68;4.53;;;25.00;46.90;;;;;;5015926;28;99297;-71
2022/05/15 12:09:41;;;;;;;12.75;4.68;;;25.00;45.50;;;;;;5032371;28;101938;-72
2022/05/15 12:12:23;;;;;;;8.65;4.25;;;24.90;45.60;;;;;;5015925;28;101730;-72
2022/05/15 12:15:09;;;;;;;11.63;5.53;;;24.90;45.50;;;;;;5034768;28;98476;-71
2022/05/15 12:17:59;;;;;;;8.82;4.45;;;25.00;45.70;;;;;;5032896;28;98568;-71
2022/05/15 12:20:29;;;;;;;11.50;4.75;;;25.10;45.80;;;;;;4998776;28;101776;-71
2022/05/15 12:23:14;;;;;;;11.65;5.00;;;25.10;46.30;;;;;;5034545;28;98979;-71
2022/05/15 12:25:59;;;;;;;9.98;5.80;;;25.30;45.50;;;;;;5034975;28;97782;-72
2022/05/15 12:28:52;;;;;;;9.38;3.72;;;25.50;44.50;;;;;;5033188;28;98942;-72
2022/05/15 12:31:34;;;;;;;12.57;4.30;;;25.80;44.00;;;;;;5015725;28;101777;-72
2022/05/15 12:34:23;;;;;;;11.27;4.30;;;25.80;43.60;;;;;;5033693;28;99288;-71
2022/05/15 12:36:54;;;;;;;11.18;3.45;;;25.80;43.50;;;;;;5034346;28;98500;-72
2022/05/15 12:39:24;;;;;;;12.93;4.00;;;25.80;44.00;;;;;;5034443;28;98538;-71
2022/05/15 12:41:51;;;;;;;12.38;4.00;;;25.80;43.70;;;;;;5015596;28;101000;-72
2022/05/15 12:44:34;;;;;;;8.68;3.53;;;25.90;43.50;;;;;;5032607;28;98843;-72
2022/05/15 12:47:04;;;;;;;9.88;3.80;;;26.00;43.90;;;;;;5034153;28;98551;-72
2022/05/15 12:49:40;;;;;;;9.38;3.70;;;25.80;42.70;;;;;;5033408;28;98748;-72
2022/05/15 12:52:15;;;;;;;13.38;4.35;;;25.90;42.70;;;;;;5012261;28;101094;-71
2022/05/15 12:54:44;;;;;;;11.13;4.30;;;25.90;42.70;;;;;;5013356;28;98538;-72
2022/05/15 12:57:14;;;;;;;11.70;4.95;;;25.90;42.40;;;;;;5012612;28;98570;-72
2022/05/15 12:59:46;;;;;;;10.48;3.50;;;25.90;42.40;;;;;;5013372;28;99319;-72
2022/05/15 13:02:29;;;;;;;10.00;3.95;;;25.90;42.40;;;;;;5013003;28;99370;-72
2022/05/15 13:04:59;;;;;;;9.05;4.00;;;25.90;43.00;;;;;;5013046;28;99369;-71
2022/05/15 13:07:28;;;;;;;11.50;4.25;;;25.80;42.60;;;;;;5013590;28;98676;-72
2022/05/15 13:10:03;;;;;;;12.73;5.03;;;25.80;43.40;;;;;;4995008;28;98604;-72
2022/05/15 13:12:30;;;;;;;11.25;3.38;;;25.90;42.80;;;;;;5013306;28;99311;-72
2022/05/15 13:14:58;;;;;;;7.97;3.63;;;25.70;43.00;;;;;;4977994;28;106928;-72
2022/05/15 13:17:35;;;;;;;11.13;3.30;;;25.70;42.50;;;;;;5013986;28;98084;-71